createdAt,value
2023-09-26T00:00:50.304Z,10.7
2023-09-26T00:02:04.597Z,10.6
2023-09-26T00:03:18.890Z,10.6
2023-09-26T00:04:33.182Z,10.6
2023-09-26T00:05:47.475Z,10.6
2023-09-26T00:07:01.768Z,10.6
2023-09-26T00:08:16.061Z,10.5
2023-09-26T00:09:30.354Z,10.5
2023-09-26T00:10:44.646Z,10.5
2023-09-26T00:11:58.939Z,10.5
2023-09-26T00:13:13.231Z,10.4
2023-09-26T00:14:26.540Z,10.4
2023-09-26T00:15:40.833Z,10.3
2023-09-26T00:16:55.125Z,10.3
2023-09-26T00:18:09.418Z,10.2
2023-09-26T00:19:23.710Z,10.2
2023-09-26T00:20:38.003Z,10.1
2023-09-26T00:23:06.588Z,10.1
2023-09-26T00:24:20.880Z,10.1
2023-09-26T00:26:49.465Z,10.1
2023-09-26T00:28:03.757Z,10.1
2023-09-26T00:29:18.050Z,10.1
2023-09-26T00:30:31.358Z,10.1
2023-09-26T00:31:45.651Z,10.1
2023-09-26T00:32:59.943Z,10.1
2023-09-26T00:34:14.235Z,10
2023-09-26T00:35:28.528Z,10
2023-09-26T00:36:42.820Z,10
2023-09-26T00:37:57.113Z,10
2023-09-26T00:39:11.405Z,10
2023-09-26T00:40:25.698Z,9.9
2023-09-26T00:41:39.990Z,9.9
2023-09-26T00:42:54.283Z,9.9
2023-09-26T00:44:08.575Z,9.9
2023-09-26T00:45:22.867Z,9.8
2023-09-26T00:46:36.176Z,9.8
2023-09-26T00:47:50.468Z,9.9
2023-09-26T00:49:04.761Z,9.9
2023-09-26T00:50:19.053Z,9.9
2023-09-26T00:51:33.346Z,9.9
2023-09-26T00:52:47.638Z,9.9
2023-09-26T00:54:01.931Z,9.8
2023-09-26T00:55:16.223Z,9.7
2023-09-26T00:56:30.516Z,9.7
2023-09-26T00:57:44.808Z,9.7
2023-09-26T00:58:59.101Z,9.7
2023-09-26T01:00:13.393Z,9.7
2023-09-26T01:01:27.686Z,9.7
2023-09-26T01:02:40.995Z,9.7
2023-09-26T01:03:55.288Z,9.7
2023-09-26T01:05:09.581Z,9.7
2023-09-26T01:06:23.874Z,9.7
2023-09-26T01:07:38.167Z,9.7
2023-09-26T01:08:52.460Z,9.7
2023-09-26T01:10:06.752Z,9.7
2023-09-26T01:11:21.045Z,9.7
2023-09-26T01:12:35.338Z,9.7
2023-09-26T01:13:49.631Z,9.7
2023-09-26T01:15:03.924Z,9.7
2023-09-26T01:16:18.216Z,9.7
2023-09-26T01:17:32.509Z,9.7
2023-09-26T01:18:45.817Z,9.8
2023-09-26T01:20:00.110Z,9.7
2023-09-26T01:21:14.403Z,9.7
2023-09-26T01:22:28.695Z,9.7
2023-09-26T01:23:42.988Z,9.7
2023-09-26T01:24:57.281Z,9.7
2023-09-26T01:26:11.573Z,9.7
2023-09-26T01:27:25.866Z,9.7
2023-09-26T01:28:40.158Z,9.7
2023-09-26T01:29:54.450Z,9.7
2023-09-26T01:31:08.743Z,9.7
2023-09-26T01:32:23.035Z,9.7
2023-09-26T01:34:51.621Z,9.7
2023-09-26T01:36:04.929Z,9.8
2023-09-26T01:37:19.222Z,9.8
2023-09-26T01:38:33.514Z,9.8
2023-09-26T01:39:47.806Z,9.8
2023-09-26T01:41:02.099Z,9.8
2023-09-26T01:42:16.391Z,9.8
2023-09-26T01:43:30.684Z,9.8
2023-09-26T01:44:44.976Z,9.8
2023-09-26T01:45:59.269Z,9.8
2023-09-26T01:47:13.561Z,9.8
2023-09-26T01:48:27.853Z,9.8
2023-09-26T01:49:42.146Z,9.8
2023-09-26T01:50:56.438Z,9.8
2023-09-26T01:52:09.747Z,9.8
2023-09-26T01:53:24.039Z,9.8
2023-09-26T01:54:38.332Z,9.8
2023-09-26T01:55:52.625Z,9.8
2023-09-26T01:57:06.917Z,9.8
2023-09-26T01:58:21.210Z,9.8
2023-09-26T01:59:35.502Z,9.8
2023-09-26T02:00:49.794Z,9.8
2023-09-26T02:02:04.087Z,9.7
2023-09-26T02:03:18.379Z,9.7
2023-09-26T02:04:32.671Z,9.7
2023-09-26T02:05:46.964Z,9.7
2023-09-26T02:07:01.256Z,9.7
2023-09-26T02:08:14.565Z,9.7
2023-09-26T02:09:28.857Z,9.7
2023-09-26T02:10:43.149Z,9.8
2023-09-26T02:11:57.442Z,9.8
2023-09-26T02:13:11.734Z,9.8
2023-09-26T02:14:26.026Z,9.8
2023-09-26T02:15:40.319Z,9.8
2023-09-26T02:16:54.612Z,9.8
2023-09-26T02:18:08.904Z,9.8
2023-09-26T02:19:23.197Z,9.8
2023-09-26T02:20:37.489Z,9.7
2023-09-26T02:21:51.782Z,9.7
2023-09-26T02:23:06.075Z,9.7
2023-09-26T02:24:19.383Z,9.7
2023-09-26T02:25:33.676Z,9.6
2023-09-26T02:26:47.968Z,9.7
2023-09-26T02:28:02.261Z,9.7
2023-09-26T02:29:16.554Z,9.7
2023-09-26T02:30:30.846Z,9.7
2023-09-26T02:31:45.139Z,9.7
2023-09-26T02:32:59.431Z,9.7
2023-09-26T02:34:13.724Z,9.7
2023-09-26T02:35:28.016Z,9.6
2023-09-26T02:36:42.309Z,9.6
2023-09-26T02:37:56.602Z,9.6
2023-09-26T02:39:10.894Z,9.6
2023-09-26T02:40:24.203Z,9.6
2023-09-26T02:41:38.495Z,9.7
2023-09-26T02:42:52.787Z,9.6
2023-09-26T02:44:07.080Z,9.6
2023-09-26T02:45:21.372Z,9.6
2023-09-26T02:46:35.664Z,9.6
2023-09-26T02:47:49.957Z,9.6
2023-09-26T02:49:04.249Z,9.6
2023-09-26T02:50:18.542Z,9.6
2023-09-26T02:51:32.834Z,9.6
2023-09-26T02:52:47.127Z,9.6
2023-09-26T02:54:01.419Z,9.6
2023-09-26T02:55:15.711Z,9.6
2023-09-26T02:56:29.020Z,9.6
2023-09-26T02:57:43.312Z,9.6
2023-09-26T02:58:57.604Z,9.7
2023-09-26T03:00:11.897Z,9.7
2023-09-26T03:01:25.211Z,9.7
2023-09-26T03:02:39.503Z,9.7
2023-09-26T03:03:53.796Z,9.7
2023-09-26T03:05:08.088Z,9.7
2023-09-26T03:07:36.673Z,9.8
2023-09-26T03:08:50.965Z,9.8
2023-09-26T03:10:05.258Z,9.8
2023-09-26T03:11:19.550Z,9.8
2023-09-26T03:12:33.843Z,9.8
2023-09-26T03:13:48.135Z,9.8
2023-09-26T03:15:02.428Z,9.8
2023-09-26T03:16:16.720Z,9.8
2023-09-26T03:17:30.028Z,9.8
2023-09-26T03:18:44.321Z,9.9
2023-09-26T03:19:58.613Z,9.9
2023-09-26T03:21:12.905Z,9.8
2023-09-26T03:22:27.198Z,9.9
2023-09-26T03:23:41.491Z,10
2023-09-26T03:24:55.783Z,9.9
2023-09-26T03:26:10.075Z,10
2023-09-26T03:27:24.368Z,10
2023-09-26T03:28:38.660Z,10
2023-09-26T03:29:52.952Z,10
2023-09-26T03:31:07.245Z,10
2023-09-26T03:32:21.537Z,10
2023-09-26T03:33:34.846Z,9.9
2023-09-26T03:34:49.138Z,9.9
2023-09-26T03:36:03.431Z,9.9
2023-09-26T03:37:17.723Z,9.9
2023-09-26T03:38:32.015Z,9.9
2023-09-26T03:39:46.308Z,9.9
2023-09-26T03:41:00.600Z,9.8
2023-09-26T03:42:14.893Z,9.8
2023-09-26T03:43:29.186Z,9.8
2023-09-26T03:44:43.479Z,9.8
2023-09-26T03:45:57.771Z,9.8
2023-09-26T03:47:12.064Z,9.7
2023-09-26T03:48:26.356Z,9.7
2023-09-26T03:49:40.649Z,9.7
2023-09-26T03:50:53.958Z,9.7
2023-09-26T03:52:08.250Z,9.6
2023-09-26T03:53:22.543Z,9.6
2023-09-26T03:54:36.836Z,9.6
2023-09-26T03:55:51.128Z,9.6
2023-09-26T03:57:05.422Z,9.6
2023-09-26T03:58:19.714Z,9.5
2023-09-26T03:59:34.007Z,9.5
2023-09-26T04:00:48.299Z,9.4
2023-09-26T04:02:02.592Z,9.4
2023-09-26T04:03:16.886Z,9.4
2023-09-26T04:04:31.179Z,9.3
2023-09-26T04:05:45.472Z,9.3
2023-09-26T04:06:58.781Z,9.3
2023-09-26T04:08:13.073Z,9.2
2023-09-26T04:09:27.366Z,9.2
2023-09-26T04:10:41.659Z,9.2
2023-09-26T04:11:55.951Z,9.1
2023-09-26T04:13:10.244Z,9.1
2023-09-26T04:14:24.536Z,9.1
2023-09-26T04:15:38.829Z,9.1
2023-09-26T04:16:53.121Z,9
2023-09-26T04:18:07.415Z,9
2023-09-26T04:19:21.708Z,9
2023-09-26T04:20:36.000Z,9
2023-09-26T04:21:50.293Z,9
2023-09-26T04:23:03.602Z,8.9
2023-09-26T04:24:17.895Z,8.9
2023-09-26T04:25:32.189Z,8.9
2023-09-26T04:26:46.482Z,8.9
2023-09-26T04:28:00.722Z,8.9
2023-09-26T04:29:14.972Z,9
2023-09-26T04:30:29.211Z,9
2023-09-26T04:31:43.450Z,9
2023-09-26T04:32:57.744Z,9
2023-09-26T04:34:11.994Z,9
2023-09-26T04:35:26.233Z,9
2023-09-26T04:36:40.483Z,9
2023-09-26T04:37:54.722Z,9.1
2023-09-26T04:39:07.977Z,9.1
2023-09-26T04:40:22.216Z,9.1
2023-09-26T04:41:36.455Z,9.2
2023-09-26T04:42:50.694Z,9.2
2023-09-26T04:44:04.934Z,9.3
2023-09-26T04:45:19.172Z,9.3
2023-09-26T04:46:33.411Z,9.3
2023-09-26T04:47:47.651Z,9.3
2023-09-26T04:49:01.890Z,9.4
2023-09-26T04:50:16.129Z,9.4
2023-09-26T04:51:30.368Z,9.4
2023-09-26T04:52:44.607Z,9.4
2023-09-26T04:55:13.085Z,9.4
2023-09-26T04:56:26.340Z,9.5
2023-09-26T04:57:40.578Z,9.5
2023-09-26T04:58:54.817Z,9.5
2023-09-26T05:00:09.056Z,9.5
2023-09-26T05:01:23.295Z,9.5
2023-09-26T05:02:37.533Z,9.5
2023-09-26T05:03:51.772Z,9.5
2023-09-26T05:05:06.010Z,9.5
2023-09-26T05:06:20.249Z,9.5
2023-09-26T05:07:34.487Z,9.5
2023-09-26T05:08:48.726Z,9.5
2023-09-26T05:10:02.965Z,9.5
2023-09-26T05:11:17.203Z,9.5
2023-09-26T05:12:30.458Z,9.5
2023-09-26T05:16:13.174Z,9.5
2023-09-26T05:17:26.434Z,9.5
2023-09-26T05:18:39.688Z,9.5
2023-09-26T05:19:53.927Z,9.5
2023-09-26T05:21:08.165Z,9.6
2023-09-26T05:22:22.404Z,9.6
2023-09-26T05:23:36.643Z,9.6
2023-09-26T05:24:50.882Z,9.6
2023-09-26T05:26:05.121Z,9.6
2023-09-26T05:27:19.360Z,9.7
2023-09-26T05:28:33.599Z,9.7
2023-09-26T05:29:46.860Z,9.7
2023-09-26T05:31:00.115Z,9.7
2023-09-26T05:32:14.354Z,9.7
2023-09-26T05:33:28.593Z,9.7
2023-09-26T05:34:42.832Z,9.7
2023-09-26T05:35:57.071Z,9.8
2023-09-26T05:37:11.310Z,9.8
2023-09-26T05:38:25.549Z,9.8
2023-09-26T05:39:39.788Z,9.8
2023-09-26T05:40:54.027Z,9.8
2023-09-26T05:42:08.265Z,9.8
2023-09-26T05:43:22.504Z,9.8
2023-09-26T05:44:36.742Z,9.9
2023-09-26T05:45:50.981Z,9.8
2023-09-26T05:47:04.236Z,9.9
2023-09-26T05:48:18.474Z,9.9
2023-09-26T05:49:32.713Z,9.9
2023-09-26T05:50:46.951Z,10
2023-09-26T05:52:01.189Z,10
2023-09-26T05:53:15.428Z,10
2023-09-26T05:54:29.666Z,10
2023-09-26T05:55:43.906Z,10.1
2023-09-26T05:56:58.144Z,10.1
2023-09-26T05:58:12.383Z,10.1
2023-09-26T05:59:26.621Z,10.1
2023-09-26T06:00:40.860Z,10.1
2023-09-26T06:01:55.098Z,10.1
2023-09-26T06:03:08.353Z,10.2
2023-09-26T06:04:22.591Z,10.2
2023-09-26T06:05:36.830Z,10.3
2023-09-26T06:06:51.068Z,10.3
2023-09-26T06:08:05.307Z,10.4
2023-09-26T06:09:19.545Z,10.4
2023-09-26T06:10:33.784Z,10.4
2023-09-26T06:11:48.022Z,10.5
2023-09-26T06:13:02.261Z,10.6
2023-09-26T06:15:30.738Z,10.7
2023-09-26T06:16:44.976Z,10.7
2023-09-26T06:17:59.215Z,10.8
2023-09-26T06:19:12.470Z,10.8
2023-09-26T06:20:26.708Z,10.9
2023-09-26T06:21:40.947Z,10.9
2023-09-26T06:22:55.185Z,10.9
2023-09-26T06:24:09.424Z,11
2023-09-26T06:25:23.662Z,11
2023-09-26T06:26:37.901Z,11.1
2023-09-26T06:27:52.140Z,11.1
2023-09-26T06:29:06.379Z,11.2
2023-09-26T06:30:20.617Z,11.2
2023-09-26T06:31:34.856Z,11.3
2023-09-26T06:32:49.095Z,11.3
2023-09-26T06:34:03.333Z,11.4
2023-09-26T06:35:16.588Z,11.4
2023-09-26T06:36:30.827Z,11.4
2023-09-26T06:37:45.065Z,11.5
2023-09-26T06:38:59.304Z,11.5
2023-09-26T06:40:13.543Z,11.6
2023-09-26T06:41:27.782Z,11.6
2023-09-26T06:42:42.020Z,11.6
2023-09-26T06:43:56.259Z,11.7
2023-09-26T06:45:10.498Z,11.7
2023-09-26T06:46:24.736Z,11.8
2023-09-26T06:47:38.975Z,11.8
2023-09-26T06:48:53.214Z,11.8
2023-09-26T06:50:07.453Z,11.9
2023-09-26T06:51:20.708Z,11.9
2023-09-26T06:52:34.947Z,12
2023-09-26T06:53:49.185Z,12
2023-09-26T06:55:03.424Z,12.1
2023-09-26T06:56:17.663Z,12.2
2023-09-26T06:57:31.902Z,12.2
2023-09-26T06:58:46.140Z,12.2
2023-09-26T07:00:00.379Z,12.3
2023-09-26T07:01:14.618Z,12.3
2023-09-26T07:02:28.856Z,12.4
2023-09-26T07:03:43.095Z,12.4
2023-09-26T07:04:57.334Z,12.5
2023-09-26T07:06:11.572Z,12.5
2023-09-26T07:07:24.827Z,12.5
2023-09-26T07:08:39.065Z,12.6
2023-09-26T07:09:52.325Z,12.7
2023-09-26T07:11:06.564Z,12.7
2023-09-26T07:12:20.803Z,12.8
2023-09-26T07:13:35.042Z,12.9
2023-09-26T07:14:49.280Z,13
2023-09-26T07:16:03.519Z,13.1
2023-09-26T07:17:17.757Z,13.2
2023-09-26T07:18:31.996Z,13.4
2023-09-26T07:19:46.235Z,13.5
2023-09-26T07:21:00.473Z,13.6
2023-09-26T07:22:14.712Z,13.8
2023-09-26T07:23:28.951Z,14
2023-09-26T07:24:43.189Z,14.2
2023-09-26T07:25:56.444Z,14.4
2023-09-26T07:27:10.682Z,14.6
2023-09-26T07:28:24.921Z,14.8
2023-09-26T07:29:39.159Z,15
2023-09-26T07:30:53.398Z,15.3
2023-09-26T07:32:07.636Z,15.5
2023-09-26T07:33:21.875Z,15.7
2023-09-26T07:34:36.114Z,16
2023-09-26T07:35:50.353Z,16.2
2023-09-26T07:37:04.592Z,16.5
2023-09-26T07:38:18.830Z,16.7
2023-09-26T07:39:33.069Z,17
2023-09-26T07:40:47.307Z,17.3
2023-09-26T07:42:00.561Z,17.6
2023-09-26T07:43:14.800Z,17.9
2023-09-26T07:44:29.039Z,18.1
2023-09-26T07:45:43.277Z,18.4
2023-09-26T07:46:57.516Z,18.7
2023-09-26T07:48:11.754Z,18.9
2023-09-26T07:49:25.992Z,19.2
2023-09-26T07:50:40.231Z,19.4
2023-09-26T07:51:54.469Z,19.7
2023-09-26T07:53:08.708Z,19.9
2023-09-26T07:54:22.947Z,20.2
2023-09-26T07:55:37.185Z,20.4
2023-09-26T07:56:51.425Z,20.6
2023-09-26T07:58:04.680Z,20.8
2023-09-26T07:59:18.919Z,21.1
2023-09-26T08:00:33.157Z,21.3
2023-09-26T08:01:47.396Z,21.6
2023-09-26T08:03:01.634Z,21.8
2023-09-26T08:04:15.872Z,22
2023-09-26T08:05:30.110Z,22.2
2023-09-26T08:06:44.348Z,22.4
2023-09-26T08:07:58.587Z,22.6
2023-09-26T08:09:12.825Z,22.8
2023-09-26T08:10:27.064Z,22.9
2023-09-26T08:11:41.303Z,23.1
2023-09-26T08:12:55.541Z,23.2
2023-09-26T08:14:08.796Z,23.4
2023-09-26T08:15:23.034Z,23.6
2023-09-26T08:16:37.273Z,23.7
2023-09-26T08:17:51.511Z,23.9
2023-09-26T08:19:05.750Z,24
2023-09-26T08:20:19.988Z,24.2
2023-09-26T08:21:34.226Z,24.4
2023-09-26T08:22:48.465Z,24.5
2023-09-26T08:24:02.704Z,24.6
2023-09-26T08:25:16.943Z,24.8
2023-09-26T08:26:31.182Z,24.9
2023-09-26T08:27:45.420Z,24.9
2023-09-26T08:28:59.659Z,25
2023-09-26T08:30:12.914Z,25.2
2023-09-26T08:31:27.152Z,25.3
2023-09-26T08:32:41.391Z,25.4
2023-09-26T08:33:55.630Z,25.4
2023-09-26T08:35:09.868Z,25.4
2023-09-26T08:36:24.106Z,25.4
2023-09-26T08:37:38.346Z,25.3
2023-09-26T08:38:52.584Z,25.3
2023-09-26T08:40:06.822Z,25.3
2023-09-26T08:41:21.060Z,25.2
2023-09-26T08:42:35.298Z,25.3
2023-09-26T08:43:49.537Z,25.3
2023-09-26T08:45:03.776Z,25.3
2023-09-26T08:46:17.030Z,25.4
2023-09-26T08:47:31.269Z,25.5
2023-09-26T08:48:45.508Z,25.6
2023-09-26T08:49:59.746Z,25.5
2023-09-26T08:51:13.985Z,25.5
2023-09-26T08:52:28.224Z,25.5
2023-09-26T08:53:42.462Z,25.5
2023-09-26T08:54:56.701Z,25.4
2023-09-26T08:56:10.940Z,25.6
2023-09-26T08:57:25.178Z,25.6
2023-09-26T08:58:39.417Z,25.7
2023-09-26T08:59:53.656Z,25.8
2023-09-26T09:01:07.894Z,26
2023-09-26T09:02:21.149Z,26.1
2023-09-26T09:03:35.388Z,26.2
2023-09-26T09:04:49.626Z,26.3
2023-09-26T09:06:03.865Z,26.4
2023-09-26T09:07:18.103Z,26.5
2023-09-26T09:08:32.342Z,26.7
2023-09-26T09:09:46.581Z,26.8
2023-09-26T09:11:00.820Z,26.9
2023-09-26T09:12:15.058Z,27
2023-09-26T09:13:29.297Z,27.1
2023-09-26T09:14:43.536Z,27.3
2023-09-26T09:15:57.774Z,27.4
2023-09-26T09:17:12.013Z,27.5
2023-09-26T09:18:25.268Z,27.6
2023-09-26T09:19:39.507Z,27.7
2023-09-26T09:20:53.746Z,27.9
2023-09-26T09:22:07.985Z,28.1
2023-09-26T09:23:22.224Z,28.2
2023-09-26T09:24:36.463Z,28.4
2023-09-26T09:25:50.701Z,28.5
2023-09-26T09:27:04.940Z,28.7
2023-09-26T09:28:19.179Z,28.8
2023-09-26T09:29:33.418Z,29
2023-09-26T09:30:47.657Z,29.1
2023-09-26T09:32:01.896Z,29.3
2023-09-26T09:33:16.134Z,29.3
2023-09-26T09:34:29.390Z,29.3
2023-09-26T09:35:43.629Z,29.4
2023-09-26T09:36:57.868Z,29.5
2023-09-26T09:38:12.106Z,29.6
2023-09-26T09:39:26.344Z,29.7
2023-09-26T09:40:40.583Z,29.7
2023-09-26T09:41:54.821Z,29.8
2023-09-26T09:43:09.059Z,29.9
2023-09-26T09:44:23.298Z,30
2023-09-26T09:45:37.537Z,30.1
2023-09-26T09:46:51.775Z,29.9
2023-09-26T09:48:06.014Z,29.9
2023-09-26T09:49:20.252Z,30
2023-09-26T09:50:33.507Z,30
2023-09-26T09:51:47.746Z,30.1
2023-09-26T09:53:01.985Z,30.2
2023-09-26T09:54:16.224Z,30.3
2023-09-26T09:55:30.463Z,30.3
2023-09-26T09:56:44.701Z,30.4
2023-09-26T09:57:58.940Z,30.5
2023-09-26T09:59:13.179Z,30.6
2023-09-26T10:00:27.417Z,30.6
2023-09-26T10:01:41.656Z,30.6
2023-09-26T10:02:55.895Z,30.5
2023-09-26T10:04:10.134Z,30.6
2023-09-26T10:05:24.372Z,30.5
2023-09-26T10:06:37.627Z,30.5
2023-09-26T10:07:51.866Z,30.6
2023-09-26T10:09:06.105Z,30.6
2023-09-26T10:10:20.343Z,30.7
2023-09-26T10:11:34.582Z,30.8
2023-09-26T10:12:48.821Z,30.8
2023-09-26T10:14:03.060Z,30.9
2023-09-26T10:15:17.299Z,30.8
2023-09-26T10:16:31.537Z,30.9
2023-09-26T10:17:45.776Z,30.9
2023-09-26T10:19:00.015Z,30.9
2023-09-26T10:20:14.254Z,30.9
2023-09-26T10:21:28.493Z,30.9
2023-09-26T10:22:42.732Z,30.8
2023-09-26T10:23:55.987Z,30.8
2023-09-26T10:25:10.226Z,30.8
2023-09-26T10:26:24.464Z,30.7
2023-09-26T10:27:38.703Z,30.6
2023-09-26T10:28:52.942Z,30.3
2023-09-26T10:30:07.180Z,30
2023-09-26T10:31:21.419Z,29.8
2023-09-26T10:32:35.657Z,29.7
2023-09-26T10:33:49.896Z,29.4
2023-09-26T10:35:04.135Z,29.3
2023-09-26T10:36:18.373Z,29.2
2023-09-26T10:37:32.612Z,29
2023-09-26T10:38:46.850Z,28.9
2023-09-26T10:40:00.105Z,28.8
2023-09-26T10:41:14.343Z,28.7
2023-09-26T10:42:28.582Z,28.6
2023-09-26T10:43:42.821Z,28.6
2023-09-26T10:44:57.060Z,28.5
2023-09-26T10:46:11.299Z,28.4
2023-09-26T10:47:25.538Z,28.4
2023-09-26T10:48:39.777Z,28.4
2023-09-26T10:49:54.016Z,28.4
2023-09-26T10:51:08.255Z,28.4
2023-09-26T10:52:22.493Z,28.3
2023-09-26T10:53:36.732Z,28.3
2023-09-26T10:54:50.971Z,28.2
2023-09-26T10:56:04.226Z,28.1
2023-09-26T10:57:18.465Z,28
2023-09-26T10:58:32.704Z,28
2023-09-26T10:59:46.943Z,27.9
2023-09-26T11:01:01.181Z,27.8
2023-09-26T11:02:15.420Z,27.6
2023-09-26T11:03:29.659Z,27.5
2023-09-26T11:04:43.899Z,27.5
2023-09-26T11:05:58.137Z,27.5
2023-09-26T11:07:12.376Z,27.5
2023-09-26T11:08:26.615Z,27.5
2023-09-26T11:09:40.854Z,27.6
2023-09-26T11:10:55.092Z,27.6
2023-09-26T11:12:08.347Z,27.6
2023-09-26T11:13:22.586Z,27.7
2023-09-26T11:14:36.824Z,27.7
2023-09-26T11:15:51.063Z,27.8
2023-09-26T11:17:05.301Z,27.7
2023-09-26T11:18:18.561Z,27.7
2023-09-26T11:19:32.800Z,27.6
2023-09-26T11:20:47.039Z,27.6
2023-09-26T11:22:01.277Z,27.6
2023-09-26T11:23:15.516Z,27.7
2023-09-26T11:24:29.755Z,27.7
2023-09-26T11:25:43.993Z,27.7
2023-09-26T11:26:58.232Z,27.7
2023-09-26T11:28:12.470Z,27.7
2023-09-26T11:29:26.709Z,27.6
2023-09-26T11:30:40.948Z,27.6
2023-09-26T11:31:55.186Z,27.6
2023-09-26T11:33:09.425Z,27.6
2023-09-26T11:34:22.680Z,27.5
2023-09-26T11:35:36.918Z,27.5
2023-09-26T11:36:51.157Z,27.4
2023-09-26T11:38:05.396Z,27.4
2023-09-26T11:39:19.634Z,27.4
2023-09-26T11:40:33.873Z,27.3
2023-09-26T11:41:48.112Z,27.3
2023-09-26T11:43:02.351Z,27.3
2023-09-26T11:44:16.589Z,27.2
2023-09-26T11:45:30.828Z,27.2
2023-09-26T11:46:45.067Z,27.2
2023-09-26T11:47:59.305Z,27.2
2023-09-26T11:49:13.544Z,27.2
2023-09-26T11:50:26.799Z,27.3
2023-09-26T11:51:41.038Z,27.3
2023-09-26T11:52:55.276Z,27.3
2023-09-26T11:54:09.515Z,27.3
2023-09-26T11:55:23.753Z,27.4
2023-09-26T11:56:37.992Z,27.4
2023-09-26T11:57:52.231Z,27.4
2023-09-26T11:59:06.469Z,27.5
2023-09-26T12:00:20.708Z,27.5
2023-09-26T12:01:34.947Z,27.5
2023-09-26T12:02:49.186Z,27.5
2023-09-26T12:04:03.424Z,27.5
2023-09-26T12:05:17.663Z,27.5
2023-09-26T12:06:31.901Z,27.5
2023-09-26T12:07:45.156Z,27.5
2023-09-26T12:08:59.395Z,27.4
2023-09-26T12:10:13.633Z,27.3
2023-09-26T12:11:27.872Z,27.3
2023-09-26T12:12:42.111Z,27.3
2023-09-26T12:13:56.350Z,27.2
2023-09-26T12:15:10.588Z,27.2
2023-09-26T12:16:24.827Z,27.2
2023-09-26T12:17:39.065Z,27.1
2023-09-26T12:18:53.304Z,27.1
2023-09-26T12:20:07.542Z,27.1
2023-09-26T12:21:21.781Z,27
2023-09-26T12:22:36.019Z,27
2023-09-26T12:23:49.274Z,26.9
2023-09-26T12:25:03.512Z,26.8
2023-09-26T12:26:17.750Z,26.7
2023-09-26T12:27:31.988Z,26.7
2023-09-26T12:28:46.227Z,26.7
2023-09-26T12:30:00.465Z,26.7
2023-09-26T12:31:14.703Z,26.7
2023-09-26T12:32:28.942Z,26.7
2023-09-26T12:33:43.180Z,26.7
2023-09-26T12:34:57.419Z,26.7
2023-09-26T12:36:11.657Z,26.7
2023-09-26T12:37:25.895Z,26.7
2023-09-26T12:38:40.134Z,26.7
2023-09-26T12:39:53.388Z,26.7
2023-09-26T12:41:07.626Z,26.7
2023-09-26T12:42:21.865Z,26.6
2023-09-26T12:43:36.103Z,26.6
2023-09-26T12:44:50.341Z,26.6
2023-09-26T12:46:04.579Z,26.6
2023-09-26T12:47:18.817Z,26.5
2023-09-26T12:48:33.055Z,26.4
2023-09-26T12:49:47.294Z,26.4
2023-09-26T12:51:01.532Z,26.4
2023-09-26T12:52:15.770Z,26.3
2023-09-26T12:53:30.008Z,26.2
2023-09-26T12:54:44.246Z,26.2
2023-09-26T12:55:57.501Z,26.2
2023-09-26T12:57:11.739Z,26.1
2023-09-26T12:58:25.977Z,26.1
2023-09-26T12:59:40.215Z,26
2023-09-26T13:02:08.691Z,25.9
2023-09-26T13:03:22.929Z,25.9
2023-09-26T13:04:37.167Z,25.9
2023-09-26T13:05:51.405Z,25.9
2023-09-26T13:07:05.644Z,25.9
2023-09-26T13:08:19.882Z,25.9
2023-09-26T13:09:34.121Z,25.8
2023-09-26T13:10:48.359Z,25.8
2023-09-26T13:12:01.614Z,25.8
2023-09-26T13:13:15.853Z,25.7
2023-09-26T13:14:30.091Z,25.7
2023-09-26T13:15:44.330Z,25.7
2023-09-26T13:16:58.569Z,25.7
2023-09-26T13:18:12.808Z,25.7
2023-09-26T13:19:27.047Z,25.7
2023-09-26T13:20:41.285Z,25.7
2023-09-26T13:21:55.524Z,25.6
2023-09-26T13:23:09.763Z,25.6
2023-09-26T13:24:24.001Z,25.6
2023-09-26T13:25:38.240Z,25.5
2023-09-26T13:26:52.479Z,25.5
2023-09-26T13:28:05.734Z,25.5
2023-09-26T13:29:19.972Z,25.5
2023-09-26T13:30:34.210Z,25.5
2023-09-26T13:31:48.449Z,25.5
2023-09-26T13:33:02.687Z,25.5
2023-09-26T13:34:16.926Z,25.4
2023-09-26T13:35:31.165Z,25.4
2023-09-26T13:36:45.404Z,25.4
2023-09-26T13:37:59.643Z,25.4
2023-09-26T13:39:13.881Z,25.4
2023-09-26T13:40:28.120Z,25.4
2023-09-26T13:41:42.359Z,25.4
2023-09-26T13:42:56.598Z,25.4
2023-09-26T13:44:09.853Z,25.4
2023-09-26T13:45:24.092Z,25.4
2023-09-26T13:46:38.331Z,25.3
2023-09-26T13:47:52.569Z,25.3
2023-09-26T13:49:06.808Z,25.3
2023-09-26T13:50:21.047Z,25.3
2023-09-26T13:51:35.286Z,25.3
2023-09-26T13:52:49.524Z,25.3
2023-09-26T13:54:03.764Z,25.3
2023-09-26T13:55:18.003Z,25.3
2023-09-26T13:56:32.242Z,25.3
2023-09-26T13:57:46.481Z,25.3
2023-09-26T13:59:00.720Z,25.3
2023-09-26T14:00:13.975Z,25.3
2023-09-26T14:01:28.214Z,25.3
2023-09-26T14:02:42.453Z,25.3
2023-09-26T14:03:56.691Z,25.3
2023-09-26T14:05:10.930Z,25.3
2023-09-26T14:06:25.169Z,25.3
2023-09-26T14:07:39.408Z,25.3
2023-09-26T14:08:53.646Z,25.3
2023-09-26T14:10:07.885Z,25.3
2023-09-26T14:11:22.124Z,25.3
2023-09-26T14:12:36.362Z,25.3
2023-09-26T14:13:50.601Z,25.3
2023-09-26T14:15:04.840Z,25.2
2023-09-26T14:16:18.094Z,25.2
2023-09-26T14:17:32.333Z,25.2
2023-09-26T14:18:46.572Z,25.2
2023-09-26T14:20:00.810Z,25.1
2023-09-26T14:21:15.049Z,25.1
2023-09-26T14:22:29.287Z,25
2023-09-26T14:23:43.526Z,25
2023-09-26T14:24:57.764Z,25
2023-09-26T14:26:12.002Z,24.9
2023-09-26T14:27:26.241Z,24.9
2023-09-26T14:28:40.479Z,24.9
2023-09-26T14:29:54.718Z,24.9
2023-09-26T14:31:08.957Z,24.8
2023-09-26T14:32:22.211Z,24.8
2023-09-26T14:33:36.450Z,24.8
2023-09-26T14:34:50.688Z,24.7
2023-09-26T14:36:04.927Z,24.7
2023-09-26T14:37:19.165Z,24.7
2023-09-26T14:38:33.403Z,24.7
2023-09-26T14:39:47.642Z,24.7
2023-09-26T14:41:01.880Z,24.7
2023-09-26T14:42:16.119Z,24.7
2023-09-26T14:43:30.357Z,24.6
2023-09-26T14:44:44.596Z,24.6
2023-09-26T14:45:58.834Z,24.6
2023-09-26T14:47:13.073Z,24.6
2023-09-26T14:48:26.327Z,24.6
2023-09-26T14:49:40.565Z,24.6
2023-09-26T14:50:54.804Z,24.6
2023-09-26T14:52:09.042Z,24.6
2023-09-26T14:53:23.281Z,24.5
2023-09-26T14:54:37.519Z,24.5
2023-09-26T14:55:51.758Z,24.5
2023-09-26T14:57:05.996Z,24.5
2023-09-26T14:58:20.234Z,24.6
2023-09-26T14:59:34.473Z,24.6
2023-09-26T15:00:48.711Z,24.5
2023-09-26T15:02:02.949Z,24.5
2023-09-26T15:03:17.188Z,24.5
2023-09-26T15:04:30.443Z,24.5
2023-09-26T15:05:44.681Z,24.6
2023-09-26T15:06:58.919Z,24.5
2023-09-26T15:08:13.158Z,24.5
2023-09-26T15:09:27.396Z,24.5
2023-09-26T15:10:41.635Z,24.5
2023-09-26T15:11:55.873Z,24.6
2023-09-26T15:13:10.111Z,24.5
2023-09-26T15:14:24.350Z,24.5
2023-09-26T15:15:38.589Z,24.5
2023-09-26T15:16:52.827Z,24.5
2023-09-26T15:18:07.066Z,24.5
2023-09-26T15:19:21.304Z,24.5
2023-09-26T15:20:34.559Z,24.5
2023-09-26T15:21:48.797Z,24.4
2023-09-26T15:23:03.035Z,24.4
2023-09-26T15:25:31.512Z,24.4
2023-09-26T15:26:45.751Z,24.4
2023-09-26T15:27:59.011Z,24.4
2023-09-26T15:29:13.249Z,24.4
2023-09-26T15:30:27.488Z,24.4
2023-09-26T15:31:41.726Z,24.4
2023-09-26T15:32:55.964Z,24.4
2023-09-26T15:34:10.203Z,24.3
2023-09-26T15:36:38.680Z,24.3
2023-09-26T15:37:52.918Z,24.3
2023-09-26T15:39:07.157Z,24.3
2023-09-26T15:40:21.395Z,24.3
2023-09-26T15:41:35.633Z,24.3
2023-09-26T15:42:49.872Z,24.3
2023-09-26T15:44:04.110Z,24.2
2023-09-26T15:45:17.365Z,24.2
2023-09-26T15:46:31.603Z,24.2
2023-09-26T15:47:45.842Z,24.2
2023-09-26T15:49:00.080Z,24.2
2023-09-26T15:50:14.319Z,24.2
2023-09-26T15:51:28.557Z,24.2
2023-09-26T15:52:42.796Z,24.2
2023-09-26T15:53:57.034Z,24.2
2023-09-26T15:55:11.272Z,24.2
2023-09-26T15:56:25.511Z,24.1
2023-09-26T15:57:39.749Z,24.1
2023-09-26T15:58:53.988Z,24.1
2023-09-26T16:00:08.226Z,24.1
2023-09-26T16:01:21.481Z,24.1
2023-09-26T16:02:35.719Z,24
2023-09-26T16:03:49.957Z,24
2023-09-26T16:05:04.196Z,24
2023-09-26T16:06:18.434Z,24
2023-09-26T16:07:32.672Z,23.9
2023-09-26T16:08:46.911Z,23.9
2023-09-26T16:10:01.150Z,23.9
2023-09-26T16:11:15.388Z,23.8
2023-09-26T16:12:29.626Z,23.8
2023-09-26T16:13:43.866Z,23.8
2023-09-26T16:14:58.104Z,23.7
2023-09-26T16:16:12.343Z,23.7
2023-09-26T16:17:25.597Z,23.6
2023-09-26T16:18:39.836Z,23.6
2023-09-26T16:19:54.075Z,23.5
2023-09-26T16:21:08.313Z,23.4
2023-09-26T16:22:22.552Z,23.4
2023-09-26T16:23:36.790Z,23.3
2023-09-26T16:24:51.029Z,23.3
2023-09-26T16:26:05.267Z,23.2
2023-09-26T16:27:19.506Z,23.2
2023-09-26T16:28:33.744Z,23.1
2023-09-26T16:29:47.983Z,23.1
2023-09-26T16:31:02.221Z,23
2023-09-26T16:32:16.460Z,22.9
2023-09-26T16:33:29.715Z,22.9
2023-09-26T16:34:43.953Z,22.8
2023-09-26T16:35:58.192Z,22.8
2023-09-26T16:37:12.430Z,22.6
2023-09-26T16:38:26.669Z,22.6
2023-09-26T16:39:40.907Z,22.5
2023-09-26T16:40:55.146Z,22.4
2023-09-26T16:42:09.384Z,22.3
2023-09-26T16:43:23.623Z,22.2
2023-09-26T16:44:37.862Z,22.2
2023-09-26T16:45:52.100Z,22.1
2023-09-26T16:47:06.339Z,21.9
2023-09-26T16:48:20.577Z,21.9
2023-09-26T16:49:33.832Z,21.7
2023-09-26T16:50:48.070Z,21.6
2023-09-26T16:52:02.309Z,21.6
2023-09-26T16:53:16.548Z,21.5
2023-09-26T16:54:30.786Z,21.3
2023-09-26T16:55:45.025Z,21.2